sensor_id;sensor_type;location;lat;lon;timestamp;temperature;humidity
11559;DHT22;5835;42.930;25.178;2023-07-31T00:00:41;21.90;99.90
11559;DHT22;5835;42.930;25.178;2023-07-31T00:03:08;22.00;99.90
11559;DHT22;5835;42.930;25.178;2023-07-31T00:05:36;22.00;99.90
11559;DHT22;5835;42.930;25.178;2023-07-31T00:08:03;22.10;99.90
11559;DHT22;5835;42.930;25.178;2023-07-31T00:10:30;21.80;99.90
11559;DHT22;5835;42.930;25.178;2023-07-31T00:12:56;21.50;99.90
11559;DHT22;5835;42.930;25.178;2023-07-31T00:15:24;21.50;99.90
11559;DHT22;5835;42.930;25.178;2023-07-31T00:17:51;21.60;99.90
11559;DHT22;5835;42.930;25.178;2023-07-31T00:20:18;21.70;99.90
11559;DHT22;5835;42.930;25.178;2023-07-31T00:22:45;21.60;99.90
11559;DHT22;5835;42.930;25.178;2023-07-31T00:25:14;21.50;99.90
11559;DHT22;5835;42.930;25.178;2023-07-31T00:27:41;21.60;99.90
11559;DHT22;5835;42.930;25.178;2023-07-31T00:30:10;21.80;99.90
11559;DHT22;5835;42.930;25.178;2023-07-31T00:32:38;21.70;99.90
11559;DHT22;5835;42.930;25.178;2023-07-31T00:35:06;21.50;99.90
11559;DHT22;5835;42.930;25.178;2023-07-31T00:37:33;21.70;99.90
11559;DHT22;5835;42.930;25.178;2023-07-31T00:40:00;21.80;99.90
11559;DHT22;5835;42.930;25.178;2023-07-31T00:42:29;21.90;99.90
11559;DHT22;5835;42.930;25.178;2023-07-31T00:44:56;21.80;99.90
11559;DHT22;5835;42.930;25.178;2023-07-31T00:47:23;21.80;99.90
11559;DHT22;5835;42.930;25.178;2023-07-31T00:49:51;21.80;99.90
11559;DHT22;5835;42.930;25.178;2023-07-31T00:52:18;21.80;99.90
11559;DHT22;5835;42.930;25.178;2023-07-31T00:54:45;21.70;99.90
11559;DHT22;5835;42.930;25.178;2023-07-31T00:57:12;21.60;99.90
11559;DHT22;5835;42.930;25.178;2023-07-31T00:59:39;21.60;99.90
11559;DHT22;5835;42.930;25.178;2023-07-31T01:02:06;21.60;99.90
11559;DHT22;5835;42.930;25.178;2023-07-31T01:04:33;21.40;99.90
11559;DHT22;5835;42.930;25.178;2023-07-31T01:07:04;21.30;99.90
11559;DHT22;5835;42.930;25.178;2023-07-31T01:09:42;21.20;99.90
11559;DHT22;5835;42.930;25.178;2023-07-31T01:12:14;21.30;99.90
11559;DHT22;5835;42.930;25.178;2023-07-31T01:14:51;21.20;99.90
11559;DHT22;5835;42.930;25.178;2023-07-31T01:17:18;21.20;99.90
11559;DHT22;5835;42.930;25.178;2023-07-31T01:19:45;21.20;99.90
11559;DHT22;5835;42.930;25.178;2023-07-31T01:22:26;21.30;99.90
11559;DHT22;5835;42.930;25.178;2023-07-31T01:25:05;21.30;99.90
11559;DHT22;5835;42.930;25.178;2023-07-31T01:27:44;21.30;99.90
11559;DHT22;5835;42.930;25.178;2023-07-31T01:30:16;21.30;99.90
11559;DHT22;5835;42.930;25.178;2023-07-31T01:32:48;21.20;99.90
11559;DHT22;5835;42.930;25.178;2023-07-31T01:35:15;21.20;99.90
11559;DHT22;5835;42.930;25.178;2023-07-31T01:37:42;21.20;99.90
11559;DHT22;5835;42.930;25.178;2023-07-31T01:40:10;21.20;99.90
11559;DHT22;5835;42.930;25.178;2023-07-31T01:42:37;21.20;99.90
11559;DHT22;5835;42.930;25.178;2023-07-31T01:45:05;21.30;99.90
11559;DHT22;5835;42.930;25.178;2023-07-31T01:47:32;21.20;99.90
11559;DHT22;5835;42.930;25.178;2023-07-31T01:49:59;21.30;99.90
11559;DHT22;5835;42.930;25.178;2023-07-31T01:52:27;21.20;99.90
11559;DHT22;5835;42.930;25.178;2023-07-31T01:54:54;21.20;99.90
11559;DHT22;5835;42.930;25.178;2023-07-31T01:57:21;21.30;99.90
11559;DHT22;5835;42.930;25.178;2023-07-31T01:59:48;21.40;99.90
11559;DHT22;5835;42.930;25.178;2023-07-31T02:02:16;21.40;99.90
11559;DHT22;5835;42.930;25.178;2023-07-31T02:04:43;21.20;99.90
11559;DHT22;5835;42.930;25.178;2023-07-31T02:07:10;21.20;99.90
11559;DHT22;5835;42.930;25.178;2023-07-31T02:09:37;21.30;99.90
11559;DHT22;5835;42.930;25.178;2023-07-31T02:12:04;21.40;99.90
11559;DHT22;5835;42.930;25.178;2023-07-31T02:14:31;21.40;99.90
11559;DHT22;5835;42.930;25.178;2023-07-31T02:16:58;21.40;99.90
11559;DHT22;5835;42.930;25.178;2023-07-31T02:19:26;21.10;99.90
11559;DHT22;5835;42.930;25.178;2023-07-31T02:21:54;21.20;99.90
11559;DHT22;5835;42.930;25.178;2023-07-31T02:24:21;21.40;99.90
11559;DHT22;5835;42.930;25.178;2023-07-31T02:26:48;21.40;99.90
11559;DHT22;5835;42.930;25.178;2023-07-31T02:29:15;21.40;99.90
11559;DHT22;5835;42.930;25.178;2023-07-31T02:31:42;21.40;99.90
11559;DHT22;5835;42.930;25.178;2023-07-31T02:34:09;21.20;99.90
11559;DHT22;5835;42.930;25.178;2023-07-31T02:36:37;21.10;99.90
11559;DHT22;5835;42.930;25.178;2023-07-31T02:39:03;21.10;99.90
11559;DHT22;5835;42.930;25.178;2023-07-31T02:41:30;21.10;99.90
11559;DHT22;5835;42.930;25.178;2023-07-31T02:43:58;21.10;99.90
11559;DHT22;5835;42.930;25.178;2023-07-31T02:46:25;21.10;99.90
11559;DHT22;5835;42.930;25.178;2023-07-31T02:48:52;21.00;99.90
11559;DHT22;5835;42.930;25.178;2023-07-31T02:51:19;20.90;99.90
11559;DHT22;5835;42.930;25.178;2023-07-31T02:53:48;20.90;99.90
11559;DHT22;5835;42.930;25.178;2023-07-31T02:56:15;21.00;99.90
11559;DHT22;5835;42.930;25.178;2023-07-31T02:58:42;21.00;99.90
11559;DHT22;5835;42.930;25.178;2023-07-31T03:01:11;21.00;99.90
11559;DHT22;5835;42.930;25.178;2023-07-31T03:03:38;21.00;99.90
11559;DHT22;5835;42.930;25.178;2023-07-31T03:06:05;21.20;99.90
11559;DHT22;5835;42.930;25.178;2023-07-31T03:08:32;20.80;99.90
11559;DHT22;5835;42.930;25.178;2023-07-31T03:11:00;20.50;99.90
11559;DHT22;5835;42.930;25.178;2023-07-31T03:13:27;20.40;99.90
11559;DHT22;5835;42.930;25.178;2023-07-31T03:15:54;20.20;99.90
11559;DHT22;5835;42.930;25.178;2023-07-31T03:18:20;20.20;99.90
11559;DHT22;5835;42.930;25.178;2023-07-31T03:20:47;20.30;99.90
11559;DHT22;5835;42.930;25.178;2023-07-31T03:23:15;20.50;99.90
11559;DHT22;5835;42.930;25.178;2023-07-31T03:25:55;20.60;99.90
11559;DHT22;5835;42.930;25.178;2023-07-31T03:28:23;20.50;99.90
11559;DHT22;5835;42.930;25.178;2023-07-31T03:30:50;20.30;99.90
11559;DHT22;5835;42.930;25.178;2023-07-31T03:33:17;20.20;99.90
11559;DHT22;5835;42.930;25.178;2023-07-31T03:35:45;20.10;99.90
11559;DHT22;5835;42.930;25.178;2023-07-31T03:38:12;20.10;99.90
11559;DHT22;5835;42.930;25.178;2023-07-31T03:40:39;20.10;99.90
11559;DHT22;5835;42.930;25.178;2023-07-31T03:43:06;20.00;99.90
11559;DHT22;5835;42.930;25.178;2023-07-31T03:45:34;19.90;99.90
11559;DHT22;5835;42.930;25.178;2023-07-31T03:48:01;19.90;99.90
11559;DHT22;5835;42.930;25.178;2023-07-31T03:50:28;20.00;99.90
11559;DHT22;5835;42.930;25.178;2023-07-31T03:52:54;20.10;99.90
11559;DHT22;5835;42.930;25.178;2023-07-31T03:55:21;20.20;99.90
11559;DHT22;5835;42.930;25.178;2023-07-31T03:57:48;20.20;99.90
11559;DHT22;5835;42.930;25.178;2023-07-31T04:00:15;20.30;99.90
11559;DHT22;5835;42.930;25.178;2023-07-31T04:02:43;20.40;99.90
11559;DHT22;5835;42.930;25.178;2023-07-31T04:05:09;20.60;99.90
11559;DHT22;5835;42.930;25.178;2023-07-31T04:07:36;20.70;99.90
11559;DHT22;5835;42.930;25.178;2023-07-31T04:10:04;20.70;99.90
11559;DHT22;5835;42.930;25.178;2023-07-31T04:12:31;20.60;99.90
11559;DHT22;5835;42.930;25.178;2023-07-31T04:14:58;20.70;99.90
11559;DHT22;5835;42.930;25.178;2023-07-31T04:17:25;20.70;99.90
11559;DHT22;5835;42.930;25.178;2023-07-31T04:19:52;20.70;99.90
11559;DHT22;5835;42.930;25.178;2023-07-31T04:22:19;20.70;99.90
11559;DHT22;5835;42.930;25.178;2023-07-31T04:24:46;20.70;99.90
11559;DHT22;5835;42.930;25.178;2023-07-31T04:27:13;20.80;99.90
11559;DHT22;5835;42.930;25.178;2023-07-31T04:29:40;20.80;99.90
11559;DHT22;5835;42.930;25.178;2023-07-31T04:32:08;20.80;99.90
11559;DHT22;5835;42.930;25.178;2023-07-31T04:34:35;20.80;99.90
11559;DHT22;5835;42.930;25.178;2023-07-31T04:37:03;20.70;99.90
11559;DHT22;5835;42.930;25.178;2023-07-31T04:39:30;20.80;99.90
11559;DHT22;5835;42.930;25.178;2023-07-31T04:41:57;20.80;99.90
11559;DHT22;5835;42.930;25.178;2023-07-31T04:44:23;21.00;99.90
11559;DHT22;5835;42.930;25.178;2023-07-31T04:46:50;21.10;99.90
11559;DHT22;5835;42.930;25.178;2023-07-31T04:49:17;21.10;99.90
11559;DHT22;5835;42.930;25.178;2023-07-31T04:51:45;21.10;99.90
11559;DHT22;5835;42.930;25.178;2023-07-31T04:54:12;21.00;99.90
11559;DHT22;5835;42.930;25.178;2023-07-31T04:56:40;21.00;99.90
11559;DHT22;5835;42.930;25.178;2023-07-31T04:59:08;20.90;99.90
11559;DHT22;5835;42.930;25.178;2023-07-31T05:01:34;21.20;99.90
11559;DHT22;5835;42.930;25.178;2023-07-31T05:04:01;21.20;99.90
11559;DHT22;5835;42.930;25.178;2023-07-31T05:06:28;21.20;99.90
11559;DHT22;5835;42.930;25.178;2023-07-31T05:08:55;21.30;99.90
11559;DHT22;5835;42.930;25.178;2023-07-31T05:11:22;21.10;99.90
11559;DHT22;5835;42.930;25.178;2023-07-31T05:13:49;21.00;99.90
11559;DHT22;5835;42.930;25.178;2023-07-31T05:16:16;21.10;99.90
11559;DHT22;5835;42.930;25.178;2023-07-31T05:18:44;21.00;99.90
11559;DHT22;5835;42.930;25.178;2023-07-31T05:21:11;20.90;99.90
11559;DHT22;5835;42.930;25.178;2023-07-31T05:23:38;20.80;99.90
11559;DHT22;5835;42.930;25.178;2023-07-31T05:26:05;20.90;99.90
11559;DHT22;5835;42.930;25.178;2023-07-31T05:28:34;21.00;99.90
11559;DHT22;5835;42.930;25.178;2023-07-31T05:31:02;21.20;99.90
11559;DHT22;5835;42.930;25.178;2023-07-31T05:33:29;21.10;99.90
11559;DHT22;5835;42.930;25.178;2023-07-31T05:35:56;21.10;99.90
11559;DHT22;5835;42.930;25.178;2023-07-31T05:38:25;21.00;99.90
11559;DHT22;5835;42.930;25.178;2023-07-31T05:40:52;21.20;99.90
11559;DHT22;5835;42.930;25.178;2023-07-31T05:43:19;21.20;99.90
11559;DHT22;5835;42.930;25.178;2023-07-31T05:45:47;21.20;99.90
11559;DHT22;5835;42.930;25.178;2023-07-31T05:48:14;21.20;99.90
11559;DHT22;5835;42.930;25.178;2023-07-31T05:50:42;21.30;99.90
11559;DHT22;5835;42.930;25.178;2023-07-31T05:53:09;21.30;99.90
11559;DHT22;5835;42.930;25.178;2023-07-31T05:55:36;21.40;99.90
11559;DHT22;5835;42.930;25.178;2023-07-31T05:58:03;21.50;99.90
11559;DHT22;5835;42.930;25.178;2023-07-31T06:00:39;21.50;99.90
11559;DHT22;5835;42.930;25.178;2023-07-31T06:03:09;21.70;99.90
11559;DHT22;5835;42.930;25.178;2023-07-31T06:05:36;21.70;99.90
11559;DHT22;5835;42.930;25.178;2023-07-31T06:08:02;21.70;99.90
11559;DHT22;5835;42.930;25.178;2023-07-31T06:10:29;21.80;99.90
11559;DHT22;5835;42.930;25.178;2023-07-31T06:12:56;21.80;99.90
11559;DHT22;5835;42.930;25.178;2023-07-31T06:15:25;21.90;99.90
11559;DHT22;5835;42.930;25.178;2023-07-31T06:17:51;22.10;99.90
11559;DHT22;5835;42.930;25.178;2023-07-31T06:20:19;22.20;99.90
11559;DHT22;5835;42.930;25.178;2023-07-31T06:22:46;22.20;99.90
11559;DHT22;5835;42.930;25.178;2023-07-31T06:25:13;22.20;99.90
11559;DHT22;5835;42.930;25.178;2023-07-31T06:27:40;22.20;99.90
11559;DHT22;5835;42.930;25.178;2023-07-31T06:30:07;22.10;99.90
11559;DHT22;5835;42.930;25.178;2023-07-31T06:32:34;21.80;99.90
11559;DHT22;5835;42.930;25.178;2023-07-31T06:35:02;21.70;99.90
11559;DHT22;5835;42.930;25.178;2023-07-31T06:37:29;21.70;99.90
11559;DHT22;5835;42.930;25.178;2023-07-31T06:39:56;21.60;99.90
11559;DHT22;5835;42.930;25.178;2023-07-31T06:42:23;21.60;99.90
11559;DHT22;5835;42.930;25.178;2023-07-31T06:44:50;21.70;99.90
11559;DHT22;5835;42.930;25.178;2023-07-31T06:47:17;21.60;99.90
11559;DHT22;5835;42.930;25.178;2023-07-31T06:49:44;21.70;99.90
11559;DHT22;5835;42.930;25.178;2023-07-31T06:52:11;21.50;99.90
11559;DHT22;5835;42.930;25.178;2023-07-31T06:54:38;21.80;99.90
11559;DHT22;5835;42.930;25.178;2023-07-31T06:57:06;21.90;99.90
11559;DHT22;5835;42.930;25.178;2023-07-31T06:59:33;22.00;99.90
11559;DHT22;5835;42.930;25.178;2023-07-31T07:01:59;22.10;99.90
11559;DHT22;5835;42.930;25.178;2023-07-31T07:04:26;22.20;99.90
11559;DHT22;5835;42.930;25.178;2023-07-31T07:06:53;22.10;99.90
11559;DHT22;5835;42.930;25.178;2023-07-31T07:09:20;22.20;99.90
11559;DHT22;5835;42.930;25.178;2023-07-31T07:23:01;22.60;59.00
11559;DHT22;5835;42.930;25.178;2023-07-31T07:25:28;23.00;1.00
11559;DHT22;5835;42.930;25.178;2023-07-31T07:27:55;22.90;1.00
11559;DHT22;5835;42.930;25.178;2023-07-31T07:30:23;22.80;99.90
11559;DHT22;5835;42.930;25.178;2023-07-31T07:32:51;23.00;99.90
11559;DHT22;5835;42.930;25.178;2023-07-31T07:35:18;22.90;99.90
11559;DHT22;5835;42.930;25.178;2023-07-31T07:37:45;23.00;99.90
11559;DHT22;5835;42.930;25.178;2023-07-31T07:40:12;22.90;1.00
11559;DHT22;5835;42.930;25.178;2023-07-31T07:42:39;23.20;99.90
11559;DHT22;5835;42.930;25.178;2023-07-31T07:45:07;23.00;1.00
11559;DHT22;5835;42.930;25.178;2023-07-31T07:47:34;22.70;1.00
11559;DHT22;5835;42.930;25.178;2023-07-31T07:50:01;22.80;99.90
11559;DHT22;5835;42.930;25.178;2023-07-31T07:52:28;22.60;1.00
11559;DHT22;5835;42.930;25.178;2023-07-31T07:54:55;22.60;99.90
11559;DHT22;5835;42.930;25.178;2023-07-31T07:57:23;22.50;99.90
11559;DHT22;5835;42.930;25.178;2023-07-31T07:59:50;22.90;1.00
11559;DHT22;5835;42.930;25.178;2023-07-31T08:02:17;23.30;99.90
11559;DHT22;5835;42.930;25.178;2023-07-31T08:04:44;23.30;1.00
11559;DHT22;5835;42.930;25.178;2023-07-31T08:07:11;23.60;1.00
11559;DHT22;5835;42.930;25.178;2023-07-31T08:09:39;24.00;99.90
11559;DHT22;5835;42.930;25.178;2023-07-31T08:12:06;24.20;99.90
11559;DHT22;5835;42.930;25.178;2023-07-31T08:14:34;24.70;1.00
11559;DHT22;5835;42.930;25.178;2023-07-31T08:17:02;25.10;1.00
11559;DHT22;5835;42.930;25.178;2023-07-31T08:19:29;24.80;1.00
11559;DHT22;5835;42.930;25.178;2023-07-31T08:21:56;24.70;1.00
11559;DHT22;5835;42.930;25.178;2023-07-31T08:24:23;25.00;15.50
11559;DHT22;5835;42.930;25.178;2023-07-31T08:26:50;24.90;99.90
11559;DHT22;5835;42.930;25.178;2023-07-31T08:29:17;25.00;99.90
11559;DHT22;5835;42.930;25.178;2023-07-31T08:31:44;25.50;99.90
11559;DHT22;5835;42.930;25.178;2023-07-31T08:34:11;25.40;99.90
11559;DHT22;5835;42.930;25.178;2023-07-31T08:36:38;25.10;99.90
11559;DHT22;5835;42.930;25.178;2023-07-31T08:39:05;25.30;99.90
11559;DHT22;5835;42.930;25.178;2023-07-31T08:41:37;25.60;99.90
11559;DHT22;5835;42.930;25.178;2023-07-31T08:44:05;25.80;1.00
11559;DHT22;5835;42.930;25.178;2023-07-31T08:46:33;26.20;1.00
11559;DHT22;5835;42.930;25.178;2023-07-31T08:49:03;26.00;99.90
11559;DHT22;5835;42.930;25.178;2023-07-31T08:51:31;25.50;99.90
11559;DHT22;5835;42.930;25.178;2023-07-31T08:53:58;25.80;99.90
11559;DHT22;5835;42.930;25.178;2023-07-31T08:56:26;25.40;99.90
11559;DHT22;5835;42.930;25.178;2023-07-31T08:58:54;25.30;99.90
11559;DHT22;5835;42.930;25.178;2023-07-31T09:01:22;25.90;99.90
11559;DHT22;5835;42.930;25.178;2023-07-31T09:03:53;26.10;99.90
11559;DHT22;5835;42.930;25.178;2023-07-31T09:06:40;25.90;99.90
11559;DHT22;5835;42.930;25.178;2023-07-31T09:09:07;26.30;99.90
11559;DHT22;5835;42.930;25.178;2023-07-31T09:11:35;26.50;99.90
11559;DHT22;5835;42.930;25.178;2023-07-31T09:14:03;26.90;78.60
11559;DHT22;5835;42.930;25.178;2023-07-31T09:16:34;26.80;1.00
11559;DHT22;5835;42.930;25.178;2023-07-31T09:19:01;26.30;1.00
11559;DHT22;5835;42.930;25.178;2023-07-31T09:21:29;26.80;1.00
11559;DHT22;5835;42.930;25.178;2023-07-31T09:23:57;26.30;1.00
11559;DHT22;5835;42.930;25.178;2023-07-31T09:26:31;26.30;1.00
11559;DHT22;5835;42.930;25.178;2023-07-31T09:28:59;26.20;1.00
11559;DHT22;5835;42.930;25.178;2023-07-31T09:31:33;25.70;1.00
11559;DHT22;5835;42.930;25.178;2023-07-31T09:34:04;26.10;1.00
11559;DHT22;5835;42.930;25.178;2023-07-31T09:36:31;25.90;1.00
11559;DHT22;5835;42.930;25.178;2023-07-31T09:39:02;26.30;1.00
11559;DHT22;5835;42.930;25.178;2023-07-31T09:41:30;26.10;1.00
11559;DHT22;5835;42.930;25.178;2023-07-31T09:43:57;26.70;1.00
11559;DHT22;5835;42.930;25.178;2023-07-31T09:46:27;26.60;1.00
11559;DHT22;5835;42.930;25.178;2023-07-31T09:49:04;27.10;1.00
11559;DHT22;5835;42.930;25.178;2023-07-31T09:51:31;27.00;1.00
11559;DHT22;5835;42.930;25.178;2023-07-31T09:54:01;26.90;1.00
11559;DHT22;5835;42.930;25.178;2023-07-31T09:56:29;26.80;1.00
11559;DHT22;5835;42.930;25.178;2023-07-31T09:58:58;27.20;1.00
11559;DHT22;5835;42.930;25.178;2023-07-31T10:01:25;27.10;1.00
11559;DHT22;5835;42.930;25.178;2023-07-31T10:03:53;26.80;1.00
11559;DHT22;5835;42.930;25.178;2023-07-31T10:06:20;27.20;1.00
11559;DHT22;5835;42.930;25.178;2023-07-31T10:08:48;26.70;1.00
11559;DHT22;5835;42.930;25.178;2023-07-31T10:11:16;27.00;1.00
11559;DHT22;5835;42.930;25.178;2023-07-31T10:13:44;27.10;1.00
11559;DHT22;5835;42.930;25.178;2023-07-31T10:16:12;28.40;1.00
11559;DHT22;5835;42.930;25.178;2023-07-31T10:18:41;28.00;1.00
11559;DHT22;5835;42.930;25.178;2023-07-31T10:21:09;27.30;1.00
11559;DHT22;5835;42.930;25.178;2023-07-31T10:23:37;26.80;1.00
11559;DHT22;5835;42.930;25.178;2023-07-31T10:26:05;26.30;1.00
11559;DHT22;5835;42.930;25.178;2023-07-31T10:28:34;26.00;1.00
11559;DHT22;5835;42.930;25.178;2023-07-31T10:31:04;25.90;1.00
11559;DHT22;5835;42.930;25.178;2023-07-31T10:33:32;26.00;1.00
11559;DHT22;5835;42.930;25.178;2023-07-31T10:36:17;25.70;1.00
11559;DHT22;5835;42.930;25.178;2023-07-31T10:38:44;25.90;1.00
11559;DHT22;5835;42.930;25.178;2023-07-31T10:41:11;26.50;1.00
11559;DHT22;5835;42.930;25.178;2023-07-31T10:43:38;26.50;1.00
11559;DHT22;5835;42.930;25.178;2023-07-31T10:46:09;26.10;1.00
11559;DHT22;5835;42.930;25.178;2023-07-31T10:48:39;26.10;1.00
11559;DHT22;5835;42.930;25.178;2023-07-31T10:51:08;26.00;1.00
11559;DHT22;5835;42.930;25.178;2023-07-31T10:53:36;26.50;1.00
11559;DHT22;5835;42.930;25.178;2023-07-31T10:56:06;26.70;1.00
11559;DHT22;5835;42.930;25.178;2023-07-31T10:58:34;26.30;1.00
11559;DHT22;5835;42.930;25.178;2023-07-31T11:01:02;27.00;1.00
11559;DHT22;5835;42.930;25.178;2023-07-31T11:03:42;27.30;1.00
11559;DHT22;5835;42.930;25.178;2023-07-31T11:06:10;27.00;1.00
11559;DHT22;5835;42.930;25.178;2023-07-31T11:08:42;27.00;1.00
11559;DHT22;5835;42.930;25.178;2023-07-31T11:11:11;26.90;1.00
11559;DHT22;5835;42.930;25.178;2023-07-31T11:13:44;26.10;1.00
11559;DHT22;5835;42.930;25.178;2023-07-31T11:16:12;25.90;1.00
11559;DHT22;5835;42.930;25.178;2023-07-31T11:18:41;25.90;1.00
11559;DHT22;5835;42.930;25.178;2023-07-31T11:21:08;25.60;1.00
11559;DHT22;5835;42.930;25.178;2023-07-31T11:23:37;25.40;1.00
11559;DHT22;5835;42.930;25.178;2023-07-31T11:26:05;25.50;1.00
11559;DHT22;5835;42.930;25.178;2023-07-31T11:28:34;25.40;1.00
11559;DHT22;5835;42.930;25.178;2023-07-31T11:31:01;25.90;1.00
11559;DHT22;5835;42.930;25.178;2023-07-31T11:33:29;26.00;1.00
11559;DHT22;5835;42.930;25.178;2023-07-31T11:35:57;25.80;1.00
11559;DHT22;5835;42.930;25.178;2023-07-31T11:38:25;26.50;1.00
11559;DHT22;5835;42.930;25.178;2023-07-31T11:40:52;26.20;1.00
11559;DHT22;5835;42.930;25.178;2023-07-31T11:43:20;26.10;1.00
11559;DHT22;5835;42.930;25.178;2023-07-31T11:45:48;26.10;1.00
11559;DHT22;5835;42.930;25.178;2023-07-31T11:48:21;26.50;1.00
11559;DHT22;5835;42.930;25.178;2023-07-31T11:50:49;26.90;1.00
11559;DHT22;5835;42.930;25.178;2023-07-31T11:53:20;26.90;1.00
11559;DHT22;5835;42.930;25.178;2023-07-31T11:55:49;27.20;1.00
11559;DHT22;5835;42.930;25.178;2023-07-31T11:58:16;27.80;1.00
11559;DHT22;5835;42.930;25.178;2023-07-31T12:00:44;28.10;1.00
11559;DHT22;5835;42.930;25.178;2023-07-31T12:03:12;26.50;1.00
11559;DHT22;5835;42.930;25.178;2023-07-31T12:05:39;27.40;1.00
11559;DHT22;5835;42.930;25.178;2023-07-31T12:08:09;27.00;1.00
11559;DHT22;5835;42.930;25.178;2023-07-31T12:10:38;26.40;1.00
11559;DHT22;5835;42.930;25.178;2023-07-31T12:13:08;26.10;1.00
11559;DHT22;5835;42.930;25.178;2023-07-31T12:15:41;26.10;1.00
11559;DHT22;5835;42.930;25.178;2023-07-31T12:18:09;26.70;1.00
11559;DHT22;5835;42.930;25.178;2023-07-31T12:20:41;26.10;1.00
11559;DHT22;5835;42.930;25.178;2023-07-31T12:23:13;26.50;1.00
11559;DHT22;5835;42.930;25.178;2023-07-31T12:25:42;27.40;1.00
11559;DHT22;5835;42.930;25.178;2023-07-31T12:28:09;26.80;1.00
11559;DHT22;5835;42.930;25.178;2023-07-31T12:30:38;27.40;1.00
11559;DHT22;5835;42.930;25.178;2023-07-31T12:33:07;27.80;1.00
11559;DHT22;5835;42.930;25.178;2023-07-31T12:35:37;27.20;1.00
11559;DHT22;5835;42.930;25.178;2023-07-31T12:38:04;27.20;1.00
11559;DHT22;5835;42.930;25.178;2023-07-31T12:40:31;27.40;1.00
11559;DHT22;5835;42.930;25.178;2023-07-31T12:43:01;27.50;1.00
11559;DHT22;5835;42.930;25.178;2023-07-31T12:45:29;28.10;1.00
11559;DHT22;5835;42.930;25.178;2023-07-31T12:47:57;29.20;1.00
11559;DHT22;5835;42.930;25.178;2023-07-31T12:50:23;28.90;1.00
11559;DHT22;5835;42.930;25.178;2023-07-31T12:52:51;27.90;1.00
11559;DHT22;5835;42.930;25.178;2023-07-31T12:55:18;27.20;1.00
11559;DHT22;5835;42.930;25.178;2023-07-31T12:57:45;27.30;1.00
11559;DHT22;5835;42.930;25.178;2023-07-31T13:00:14;27.40;1.00
11559;DHT22;5835;42.930;25.178;2023-07-31T13:02:42;27.00;1.00
11559;DHT22;5835;42.930;25.178;2023-07-31T13:05:09;27.40;1.00
11559;DHT22;5835;42.930;25.178;2023-07-31T13:07:35;27.40;1.00
11559;DHT22;5835;42.930;25.178;2023-07-31T13:10:03;27.60;1.00
11559;DHT22;5835;42.930;25.178;2023-07-31T13:12:30;27.40;1.00
11559;DHT22;5835;42.930;25.178;2023-07-31T13:14:57;27.40;1.00
11559;DHT22;5835;42.930;25.178;2023-07-31T13:17:25;27.90;1.00
11559;DHT22;5835;42.930;25.178;2023-07-31T13:19:52;27.30;1.00
11559;DHT22;5835;42.930;25.178;2023-07-31T13:22:19;27.90;1.00
11559;DHT22;5835;42.930;25.178;2023-07-31T13:24:46;28.50;1.00
11559;DHT22;5835;42.930;25.178;2023-07-31T13:27:13;28.50;1.00
11559;DHT22;5835;42.930;25.178;2023-07-31T13:29:42;28.00;1.00
11559;DHT22;5835;42.930;25.178;2023-07-31T13:32:09;28.00;1.00
11559;DHT22;5835;42.930;25.178;2023-07-31T13:34:37;28.10;1.00
11559;DHT22;5835;42.930;25.178;2023-07-31T13:37:05;28.10;1.00
11559;DHT22;5835;42.930;25.178;2023-07-31T13:39:32;28.50;1.00
11559;DHT22;5835;42.930;25.178;2023-07-31T13:41:59;28.30;1.00
11559;DHT22;5835;42.930;25.178;2023-07-31T13:44:26;28.30;1.00
11559;DHT22;5835;42.930;25.178;2023-07-31T13:46:53;28.40;1.00
11559;DHT22;5835;42.930;25.178;2023-07-31T13:49:20;28.90;1.00
11559;DHT22;5835;42.930;25.178;2023-07-31T13:51:47;29.20;1.00
11559;DHT22;5835;42.930;25.178;2023-07-31T13:54:14;29.20;1.00
11559;DHT22;5835;42.930;25.178;2023-07-31T13:56:42;28.20;1.00
11559;DHT22;5835;42.930;25.178;2023-07-31T13:59:09;27.90;1.00
11559;DHT22;5835;42.930;25.178;2023-07-31T14:01:36;28.60;1.00
11559;DHT22;5835;42.930;25.178;2023-07-31T14:04:03;28.30;1.00
11559;DHT22;5835;42.930;25.178;2023-07-31T14:06:30;28.20;1.00
11559;DHT22;5835;42.930;25.178;2023-07-31T14:08:58;28.20;1.00
11559;DHT22;5835;42.930;25.178;2023-07-31T14:11:25;28.20;1.00
11559;DHT22;5835;42.930;25.178;2023-07-31T14:13:52;28.70;1.00
11559;DHT22;5835;42.930;25.178;2023-07-31T14:16:19;28.40;1.00
11559;DHT22;5835;42.930;25.178;2023-07-31T14:18:46;29.00;1.00
11559;DHT22;5835;42.930;25.178;2023-07-31T14:21:13;29.30;1.00
11559;DHT22;5835;42.930;25.178;2023-07-31T14:23:40;29.80;1.00
11559;DHT22;5835;42.930;25.178;2023-07-31T14:26:08;29.00;1.00
11559;DHT22;5835;42.930;25.178;2023-07-31T14:28:35;29.50;1.00
11559;DHT22;5835;42.930;25.178;2023-07-31T14:31:02;29.30;1.00
11559;DHT22;5835;42.930;25.178;2023-07-31T14:33:29;29.00;1.00
11559;DHT22;5835;42.930;25.178;2023-07-31T14:35:56;28.70;1.00
11559;DHT22;5835;42.930;25.178;2023-07-31T14:38:23;28.60;1.00
11559;DHT22;5835;42.930;25.178;2023-07-31T14:40:50;28.80;1.00
11559;DHT22;5835;42.930;25.178;2023-07-31T14:43:18;28.60;1.00
11559;DHT22;5835;42.930;25.178;2023-07-31T14:45:45;29.00;1.00
11559;DHT22;5835;42.930;25.178;2023-07-31T14:48:12;29.00;1.00
11559;DHT22;5835;42.930;25.178;2023-07-31T14:50:39;29.00;1.00
11559;DHT22;5835;42.930;25.178;2023-07-31T14:53:08;28.90;1.00
11559;DHT22;5835;42.930;25.178;2023-07-31T14:55:35;29.10;1.00
11559;DHT22;5835;42.930;25.178;2023-07-31T14:58:02;28.70;1.00
11559;DHT22;5835;42.930;25.178;2023-07-31T15:00:30;28.40;1.00
11559;DHT22;5835;42.930;25.178;2023-07-31T15:02:57;27.80;1.00
11559;DHT22;5835;42.930;25.178;2023-07-31T15:05:24;27.80;1.00
11559;DHT22;5835;42.930;25.178;2023-07-31T15:07:51;27.70;1.00
11559;DHT22;5835;42.930;25.178;2023-07-31T15:10:18;27.30;1.00
11559;DHT22;5835;42.930;25.178;2023-07-31T15:12:45;27.50;1.00
11559;DHT22;5835;42.930;25.178;2023-07-31T15:15:13;27.40;1.00
11559;DHT22;5835;42.930;25.178;2023-07-31T15:17:41;27.40;1.00
11559;DHT22;5835;42.930;25.178;2023-07-31T15:20:10;27.60;1.00
11559;DHT22;5835;42.930;25.178;2023-07-31T15:22:37;27.60;1.00
11559;DHT22;5835;42.930;25.178;2023-07-31T15:25:04;28.00;1.00
11559;DHT22;5835;42.930;25.178;2023-07-31T15:27:31;27.90;1.00
11559;DHT22;5835;42.930;25.178;2023-07-31T15:29:58;27.80;1.00
11559;DHT22;5835;42.930;25.178;2023-07-31T15:32:25;28.10;1.00
11559;DHT22;5835;42.930;25.178;2023-07-31T15:34:54;27.90;1.00
11559;DHT22;5835;42.930;25.178;2023-07-31T15:37:20;28.00;1.00
11559;DHT22;5835;42.930;25.178;2023-07-31T15:39:47;27.90;1.00
11559;DHT22;5835;42.930;25.178;2023-07-31T15:42:14;28.10;1.00
11559;DHT22;5835;42.930;25.178;2023-07-31T15:44:42;27.90;1.00
11559;DHT22;5835;42.930;25.178;2023-07-31T15:47:09;28.00;1.00
11559;DHT22;5835;42.930;25.178;2023-07-31T15:49:35;28.00;1.00
11559;DHT22;5835;42.930;25.178;2023-07-31T15:52:04;28.00;1.00